MUHG

Frank Pais International Airport

Holguin, Cuba
MUHG 180500Z 1806/1906 06005KT 9000 FEW020 BECMG 1815/1817 06010KT SCT020 BECMG 1901/1903 06005KT
Issued Valid From Valid To
Jun-18 @ 05:00 UTC
(6 hours ago)
Jun-18 @ 06:00 UTC
(5 hours ago)
Jun-19 @ 06:00 UTC
(in 19 hours)
Jun-18 @ 06:00 to Jun-18 @ 15:00
MUHG 180500Z 1806/1906 06005KT 9000 FEW020
Wind Visibility Clouds
60° at 5 knots 8,996 meters
  • Few at 2,000' AGL
Becoming Jun-18 @ 15:00 to Jun-19 @ 01:00
BECMG 1815/1817 06010KT SCT020
Wind Visibility Clouds
60° at 10 knots 8,996 meters
  • Scattered at 2,000' AGL
Becoming Jun-19 @ 01:00 to Jun-19 @ 06:00
BECMG 1901/1903 06005KT
Wind Visibility Clouds
60° at 5 knots 8,996 meters
  • Scattered at 2,000' AGL
MUHG 180500Z 1806/1906 06005KT 9000 FEW020 BECMG 1815/1817 06010KT SCT020 BECMG 1901/1903 06005KT
Issued Jun-18 @ 05:00 UTC
(6 hours ago)
Valid From Jun-18 @ 06:00 UTC
(5 hours ago)
Valid To Jun-19 @ 06:00 UTC
(in 19 hours)
Jun-18 @ 06:00 - Jun-18 @ 15:00
Wind Visibility
60° at 5 knots 8,996 meters
Clouds
  • Few at 2,000' AGL
Becoming Jun-18 @ 15:00 - Jun-19 @ 01:00
Wind Visibility
60° at 10 knots 8,996 meters
Clouds
  • Scattered at 2,000' AGL
Becoming Jun-19 @ 01:00 - Jun-19 @ 06:00
Wind Visibility
60° at 5 knots 8,996 meters
Clouds
  • Scattered at 2,000' AGL